createdAt,value
2019-02-19T00:00:46.255Z,23.74
2019-02-19T00:01:46.260Z,23.81
2019-02-19T00:02:46.233Z,23.85
2019-02-19T00:03:46.218Z,23.79
2019-02-19T00:04:46.214Z,23.78
2019-02-19T00:05:46.206Z,23.75
2019-02-19T00:06:46.230Z,23.74
2019-02-19T00:07:46.185Z,23.87
2019-02-19T00:08:46.167Z,23.85
2019-02-19T00:09:46.153Z,23.79
2019-02-19T00:10:46.149Z,23.75
2019-02-19T00:11:46.538Z,23.82
2019-02-19T00:12:46.149Z,23.82
2019-02-19T00:13:46.118Z,23.79
2019-02-19T00:14:46.134Z,23.78
2019-02-19T00:15:46.089Z,23.82
2019-02-19T00:16:46.087Z,23.84
2019-02-19T00:17:46.067Z,23.75
2019-02-19T00:18:46.067Z,23.78
2019-02-19T00:19:46.043Z,23.79
2019-02-19T00:20:46.053Z,23.72
2019-02-19T00:21:46.057Z,23.79
2019-02-19T00:22:46.031Z,23.77
2019-02-19T00:23:46.027Z,23.84
2019-02-19T00:24:45.988Z,23.74
2019-02-19T00:25:45.996Z,23.77
2019-02-19T00:26:45.965Z,23.75
2019-02-19T00:27:45.968Z,23.84
2019-02-19T00:28:45.952Z,23.75
2019-02-19T00:29:45.948Z,23.74
2019-02-19T00:30:45.935Z,23.81
2019-02-19T00:31:45.916Z,23.87
2019-02-19T00:32:45.927Z,23.79
2019-02-19T00:33:45.889Z,23.82
2019-02-19T00:34:45.877Z,23.81
2019-02-19T00:35:45.889Z,23.82
2019-02-19T00:36:45.857Z,23.79
2019-02-19T00:37:45.864Z,23.79
2019-02-19T00:38:45.833Z,23.72
2019-02-19T00:39:45.828Z,23.82
2019-02-19T00:40:45.825Z,23.81
2019-02-19T00:41:45.810Z,23.79
2019-02-19T00:42:45.803Z,23.84
2019-02-19T00:43:45.813Z,23.72
2019-02-19T00:44:45.805Z,23.72
2019-02-19T00:45:45.815Z,23.84
2019-02-19T00:46:45.748Z,23.79
2019-02-19T00:47:45.750Z,23.71
2019-02-19T00:48:45.731Z,23.71
2019-02-19T00:49:45.711Z,23.82
2019-02-19T00:50:45.712Z,23.79
2019-02-19T00:51:45.691Z,23.85
2019-02-19T00:52:45.693Z,23.72
2019-02-19T00:53:45.681Z,23.75
2019-02-19T00:54:45.666Z,23.74
2019-02-19T00:55:45.648Z,23.72
2019-02-19T00:56:45.635Z,23.75
2019-02-19T00:57:45.638Z,23.82
2019-02-19T00:58:45.634Z,23.74
2019-02-19T00:59:45.622Z,23.81
2019-02-19T01:00:45.593Z,23.72
2019-02-19T01:01:45.584Z,23.71
2019-02-19T01:02:45.586Z,23.70
2019-02-19T01:03:45.559Z,23.72
2019-02-19T01:04:45.558Z,23.75
2019-02-19T01:05:45.538Z,23.79
2019-02-19T01:06:45.531Z,23.75
2019-02-19T01:07:45.529Z,23.82
2019-02-19T01:08:45.519Z,23.81
2019-02-19T01:09:45.494Z,23.71
2019-02-19T01:10:45.519Z,23.77
2019-02-19T01:11:45.482Z,23.71
2019-02-19T01:12:45.483Z,23.71
2019-02-19T01:13:45.450Z,23.72
2019-02-19T01:14:45.439Z,23.78
2019-02-19T01:15:45.431Z,23.72
2019-02-19T01:16:45.425Z,23.75
2019-02-19T01:17:45.419Z,23.67
2019-02-19T01:18:45.395Z,23.81
2019-02-19T01:19:45.387Z,23.75
2019-02-19T01:20:45.376Z,23.67
2019-02-19T01:21:45.370Z,23.70
2019-02-19T01:22:45.370Z,23.70
2019-02-19T01:23:45.380Z,23.70
2019-02-19T01:24:45.328Z,23.74
2019-02-19T01:25:45.322Z,23.66
2019-02-19T01:26:45.335Z,23.70
2019-02-19T01:27:45.331Z,23.79
2019-02-19T01:28:45.290Z,23.64
2019-02-19T01:29:45.280Z,23.72
2019-02-19T01:30:45.265Z,23.67
2019-02-19T01:31:45.278Z,23.66
2019-02-19T01:32:45.263Z,23.72
2019-02-19T01:33:45.237Z,23.63
2019-02-19T01:34:45.224Z,23.64
2019-02-19T01:35:45.218Z,23.77
2019-02-19T01:36:45.202Z,23.67
2019-02-19T01:37:45.199Z,23.64
2019-02-19T01:38:45.178Z,23.64
2019-02-19T01:39:45.184Z,23.63
2019-02-19T01:40:45.167Z,23.71
2019-02-19T01:41:45.145Z,23.72
2019-02-19T01:42:45.144Z,23.70
2019-02-19T01:43:45.165Z,23.75
2019-02-19T01:44:45.134Z,23.70
2019-02-19T01:45:45.098Z,23.77
2019-02-19T01:46:45.099Z,23.62
2019-02-19T01:47:45.107Z,23.64
2019-02-19T01:48:45.110Z,23.66
2019-02-19T01:49:45.074Z,23.72
2019-02-19T01:50:45.046Z,23.62
2019-02-19T01:51:45.041Z,23.60
2019-02-19T01:52:45.035Z,23.63
2019-02-19T01:53:45.020Z,23.64
2019-02-19T01:54:45.028Z,23.63
2019-02-19T01:55:44.992Z,23.63
2019-02-19T01:56:45.023Z,23.64
2019-02-19T01:57:44.983Z,23.64
2019-02-19T01:58:44.961Z,23.63
2019-02-19T01:59:44.950Z,23.63
2019-02-19T02:00:44.943Z,23.67
2019-02-19T02:01:44.931Z,23.62
2019-02-19T02:02:44.927Z,23.62
2019-02-19T02:03:44.927Z,23.63
2019-02-19T02:04:44.913Z,23.71
2019-02-19T02:05:44.885Z,23.64
2019-02-19T02:06:44.875Z,23.63
2019-02-19T02:07:44.882Z,23.70
2019-02-19T02:08:44.923Z,23.66
2019-02-19T02:09:44.846Z,23.63
2019-02-19T02:10:44.829Z,23.67
2019-02-19T02:11:44.821Z,23.67
2019-02-19T02:12:44.826Z,23.62
2019-02-19T02:13:44.792Z,23.67
2019-02-19T02:14:44.781Z,23.70
2019-02-19T02:15:44.787Z,23.70
2019-02-19T02:16:44.813Z,23.62
2019-02-19T02:17:44.784Z,23.66
2019-02-19T02:18:44.749Z,23.67
2019-02-19T02:19:44.729Z,23.71
2019-02-19T02:20:44.718Z,23.67
2019-02-19T02:21:44.707Z,23.70
2019-02-19T02:22:44.700Z,23.71
2019-02-19T02:23:44.699Z,23.75
2019-02-19T02:24:44.682Z,23.60
2019-02-19T02:25:44.660Z,23.67
2019-02-19T02:26:44.650Z,23.75
2019-02-19T02:27:44.674Z,23.75
2019-02-19T02:28:44.646Z,23.60
2019-02-19T02:29:44.618Z,23.67
2019-02-19T02:30:44.604Z,23.71
2019-02-19T02:31:44.602Z,23.71
2019-02-19T02:32:44.584Z,23.66
2019-02-19T02:33:44.621Z,23.67
2019-02-19T02:34:44.571Z,23.66
2019-02-19T02:35:44.549Z,23.71
2019-02-19T02:36:44.542Z,23.62
2019-02-19T02:37:44.527Z,23.72
2019-02-19T02:38:44.536Z,23.63
2019-02-19T02:39:44.521Z,23.70
2019-02-19T02:40:44.542Z,23.70
2019-02-19T02:41:44.483Z,23.72
2019-02-19T02:42:44.479Z,23.62
2019-02-19T02:43:44.477Z,23.59
2019-02-19T02:44:44.451Z,23.64
2019-02-19T02:45:52.762Z,23.71
2019-02-19T02:46:45.428Z,23.72
2019-02-19T02:47:44.422Z,23.70
2019-02-19T02:48:44.422Z,23.59
2019-02-19T02:49:44.404Z,23.60
2019-02-19T02:50:44.414Z,23.64
2019-02-19T02:51:44.376Z,23.64
2019-02-19T02:52:44.364Z,23.63
2019-02-19T02:53:44.392Z,23.67
2019-02-19T02:54:44.341Z,23.59
2019-02-19T02:55:44.342Z,23.53
2019-02-19T02:56:44.322Z,23.59
2019-02-19T02:57:44.321Z,23.64
2019-02-19T02:58:44.309Z,23.62
2019-02-19T02:59:44.300Z,23.53
2019-02-19T03:00:44.277Z,23.52
2019-02-19T03:01:44.265Z,23.64
2019-02-19T03:02:44.254Z,23.64
2019-02-19T03:03:44.269Z,23.60
2019-02-19T03:04:44.230Z,23.55
2019-02-19T03:05:44.259Z,23.55
2019-02-19T03:06:44.209Z,23.57
2019-02-19T03:07:44.198Z,23.60
2019-02-19T03:08:44.203Z,23.66
2019-02-19T03:09:44.181Z,23.50
2019-02-19T03:10:44.169Z,23.53
2019-02-19T03:11:44.154Z,23.66
2019-02-19T03:12:44.159Z,23.64
2019-02-19T03:13:44.176Z,23.59
2019-02-19T03:14:44.121Z,23.55
2019-02-19T03:15:44.115Z,23.55
2019-02-19T03:16:44.112Z,23.63
2019-02-19T03:17:44.096Z,23.63
2019-02-19T03:18:44.090Z,23.64
2019-02-19T03:19:44.074Z,23.56
2019-02-19T03:20:44.060Z,23.53
2019-02-19T03:21:44.067Z,23.55
2019-02-19T03:22:44.041Z,23.55
2019-02-19T03:23:51.073Z,23.59
2019-02-19T03:24:44.014Z,23.57
2019-02-19T03:25:51.525Z,23.52
2019-02-19T03:26:44.006Z,23.59
2019-02-19T03:27:43.981Z,23.59
2019-02-19T03:28:43.980Z,23.53
2019-02-19T03:29:43.957Z,23.56
2019-02-19T03:30:43.946Z,23.57
2019-02-19T03:31:43.937Z,23.55
2019-02-19T03:32:43.937Z,23.55
2019-02-19T03:33:43.944Z,23.56
2019-02-19T03:34:43.905Z,23.55
2019-02-19T03:35:43.910Z,23.53
2019-02-19T03:36:43.912Z,23.59
2019-02-19T03:37:43.869Z,23.57
2019-02-19T03:38:43.869Z,23.56
2019-02-19T03:39:44.602Z,23.55
2019-02-19T03:40:43.837Z,23.59
2019-02-19T03:41:43.827Z,23.57
2019-02-19T03:42:43.823Z,23.50
2019-02-19T03:43:43.819Z,23.53
2019-02-19T03:44:43.796Z,23.55
2019-02-19T03:45:43.833Z,23.59
2019-02-19T03:46:43.789Z,23.52
2019-02-19T03:47:43.760Z,23.57
2019-02-19T03:48:43.787Z,23.55
2019-02-19T03:49:43.746Z,23.57
2019-02-19T03:50:43.730Z,23.53
2019-02-19T03:51:43.745Z,23.56
2019-02-19T03:52:43.711Z,23.57
2019-02-19T03:53:43.710Z,23.52
2019-02-19T03:54:43.682Z,23.56
2019-02-19T03:55:43.677Z,23.53
2019-02-19T03:56:43.682Z,23.56
2019-02-19T03:57:43.670Z,23.62
2019-02-19T03:58:43.679Z,23.45
2019-02-19T03:59:43.654Z,23.56
2019-02-19T04:00:43.616Z,23.53
2019-02-19T04:01:43.605Z,23.59
2019-02-19T04:02:43.624Z,23.53
2019-02-19T04:03:43.585Z,23.52
2019-02-19T04:04:43.590Z,23.55
2019-02-19T04:05:43.567Z,23.53
2019-02-19T04:06:43.551Z,23.53
2019-02-19T04:07:43.542Z,23.62
2019-02-19T04:08:43.548Z,23.56
2019-02-19T04:09:43.531Z,23.53
2019-02-19T04:10:43.508Z,23.57
2019-02-19T04:11:43.496Z,23.56
2019-02-19T04:12:43.493Z,23.55
2019-02-19T04:13:43.475Z,23.53
2019-02-19T04:14:43.502Z,23.55
2019-02-19T04:15:43.474Z,23.59
2019-02-19T04:16:43.448Z,23.60
2019-02-19T04:17:43.436Z,23.59
2019-02-19T04:18:43.433Z,23.52
2019-02-19T04:19:43.429Z,23.56
2019-02-19T04:20:43.400Z,23.52
2019-02-19T04:21:43.395Z,23.55
2019-02-19T04:22:43.403Z,23.57
2019-02-19T04:23:43.363Z,23.56
2019-02-19T04:24:43.382Z,23.50
2019-02-19T04:25:43.351Z,23.53
2019-02-19T04:26:43.344Z,23.56
2019-02-19T04:27:43.362Z,23.56
2019-02-19T04:28:43.309Z,23.55
2019-02-19T04:29:43.309Z,23.56
2019-02-19T04:30:43.288Z,23.48
2019-02-19T04:31:43.306Z,23.57
2019-02-19T04:32:43.270Z,23.57
2019-02-19T04:33:43.272Z,23.53
2019-02-19T04:34:43.260Z,23.59
2019-02-19T04:35:43.234Z,23.50
2019-02-19T04:36:43.228Z,23.52
2019-02-19T04:37:43.213Z,23.55
2019-02-19T04:38:43.206Z,23.56
2019-02-19T04:39:43.213Z,23.55
2019-02-19T04:40:43.182Z,23.48
2019-02-19T04:41:43.165Z,23.52
2019-02-19T04:42:43.159Z,23.55
2019-02-19T04:43:43.145Z,23.53
2019-02-19T04:44:43.174Z,23.55
2019-02-19T04:45:43.152Z,23.53
2019-02-19T04:46:43.112Z,23.56
2019-02-19T04:47:43.102Z,23.53
2019-02-19T04:48:43.096Z,23.52
2019-02-19T04:49:43.095Z,23.57
2019-02-19T04:50:43.097Z,23.50
2019-02-19T04:51:43.060Z,23.47
2019-02-19T04:52:43.045Z,23.57
2019-02-19T04:53:43.038Z,23.57
2019-02-19T04:54:43.066Z,23.57
2019-02-19T04:55:43.031Z,23.55
2019-02-19T04:56:43.028Z,23.59
2019-02-19T04:57:43.003Z,23.53
2019-02-19T04:58:42.979Z,23.48
2019-02-19T04:59:42.981Z,23.50
2019-02-19T05:00:42.961Z,23.48
2019-02-19T05:01:42.960Z,23.48
2019-02-19T05:02:42.938Z,23.56
2019-02-19T05:03:42.925Z,23.57
2019-02-19T05:04:42.933Z,23.53
2019-02-19T05:05:42.905Z,23.53
2019-02-19T05:06:42.895Z,23.55
2019-02-19T05:07:42.887Z,23.53
2019-02-19T05:08:44.554Z,23.45
2019-02-19T05:09:42.870Z,23.47
2019-02-19T05:10:42.874Z,23.55
2019-02-19T05:11:42.841Z,23.47
2019-02-19T05:12:42.851Z,23.47
2019-02-19T05:13:42.826Z,23.50
2019-02-19T05:14:42.817Z,23.52
2019-02-19T05:15:42.792Z,23.52
2019-02-19T05:16:42.804Z,23.45
2019-02-19T05:17:42.780Z,23.52
2019-02-19T05:18:42.766Z,23.48
2019-02-19T05:19:42.767Z,23.47
2019-02-19T05:20:42.746Z,23.47
2019-02-19T05:21:42.729Z,23.47
2019-02-19T05:22:42.716Z,23.45
2019-02-19T05:23:42.708Z,23.48
2019-02-19T05:24:42.708Z,23.47
2019-02-19T05:25:42.705Z,23.50
2019-02-19T05:26:42.675Z,23.48
2019-02-19T05:27:42.668Z,23.48
2019-02-19T05:28:42.655Z,23.45
2019-02-19T05:29:42.650Z,23.48
2019-02-19T05:30:43.186Z,23.47
2019-02-19T05:31:43.435Z,23.56
2019-02-19T05:32:43.212Z,23.48
2019-02-19T05:33:42.597Z,23.45
2019-02-19T05:34:42.608Z,23.48
2019-02-19T05:35:42.593Z,23.53
2019-02-19T05:36:42.563Z,23.45
2019-02-19T05:37:42.553Z,23.45
2019-02-19T05:38:42.601Z,23.47
2019-02-19T05:39:42.546Z,23.45
2019-02-19T05:40:42.529Z,23.48
2019-02-19T05:41:42.553Z,23.50
2019-02-19T05:42:42.497Z,23.45
2019-02-19T05:43:42.495Z,23.50
2019-02-19T05:44:42.531Z,23.48
2019-02-19T05:45:42.465Z,23.50
2019-02-19T05:46:49.637Z,23.55
2019-02-19T05:47:43.447Z,23.52
2019-02-19T05:48:42.435Z,23.47
2019-02-19T05:49:42.426Z,23.44
2019-02-19T05:50:42.427Z,23.50
2019-02-19T05:51:42.412Z,23.50
2019-02-19T05:52:42.395Z,23.47
2019-02-19T05:53:42.386Z,23.47
2019-02-19T05:54:42.397Z,23.45
2019-02-19T05:55:42.368Z,23.48
2019-02-19T05:56:42.343Z,23.45
2019-02-19T05:57:42.357Z,23.47
2019-02-19T05:58:42.321Z,23.42
2019-02-19T05:59:42.317Z,23.44
2019-02-19T06:00:42.311Z,23.47
2019-02-19T06:01:42.287Z,23.42
2019-02-19T06:02:42.280Z,23.42
2019-02-19T06:03:42.273Z,23.44
2019-02-19T06:04:42.315Z,23.45
2019-02-19T06:05:42.265Z,23.52
2019-02-19T06:06:42.232Z,23.50
2019-02-19T06:07:42.222Z,23.47
2019-02-19T06:08:42.211Z,23.47
2019-02-19T06:09:42.202Z,23.50
2019-02-19T06:10:44.117Z,23.41
2019-02-19T06:11:42.189Z,23.52
2019-02-19T06:12:42.174Z,23.44
2019-02-19T06:13:42.156Z,23.44
2019-02-19T06:14:42.153Z,23.45
2019-02-19T06:15:42.149Z,23.41
2019-02-19T06:16:42.130Z,23.52
2019-02-19T06:17:42.137Z,23.44
2019-02-19T06:18:42.106Z,23.48
2019-02-19T06:19:42.101Z,23.45
2019-02-19T06:20:42.103Z,23.45
2019-02-19T06:21:42.072Z,23.42
2019-02-19T06:22:42.062Z,23.47
2019-02-19T06:23:42.051Z,23.47
2019-02-19T06:24:42.036Z,23.44
2019-02-19T06:25:42.040Z,23.47
2019-02-19T06:26:42.029Z,23.50
2019-02-19T06:27:42.034Z,23.44
2019-02-19T06:28:42.005Z,23.45
2019-02-19T06:29:41.986Z,23.45
2019-02-19T06:30:41.980Z,23.44
2019-02-19T06:31:41.962Z,23.48
2019-02-19T06:32:41.956Z,23.45
2019-02-19T06:33:41.957Z,23.42
2019-02-19T06:34:41.925Z,23.47
2019-02-19T06:35:41.946Z,23.47
2019-02-19T06:36:41.904Z,23.47
2019-02-19T06:37:41.894Z,23.42
2019-02-19T06:38:41.883Z,23.47
2019-02-19T06:39:41.881Z,23.47
2019-02-19T06:40:41.889Z,23.50
2019-02-19T06:41:41.867Z,23.48
2019-02-19T06:42:41.881Z,23.45
2019-02-19T06:43:41.869Z,23.48
2019-02-19T06:44:41.828Z,23.45
2019-02-19T06:45:41.824Z,23.44
2019-02-19T06:46:41.795Z,23.41
2019-02-19T06:47:41.808Z,23.44
2019-02-19T06:48:41.776Z,23.45
2019-02-19T06:49:41.783Z,23.47
2019-02-19T06:50:41.843Z,23.42
2019-02-19T06:51:41.780Z,23.42
2019-02-19T06:52:41.731Z,23.45
2019-02-19T06:53:41.719Z,23.44
2019-02-19T06:54:41.710Z,23.42
2019-02-19T06:55:41.717Z,23.47
2019-02-19T06:56:41.690Z,23.42
2019-02-19T06:57:41.697Z,23.48
2019-02-19T06:58:41.668Z,23.45
2019-02-19T06:59:41.694Z,23.47
2019-02-19T07:00:41.658Z,23.45
2019-02-19T07:01:41.631Z,23.38
2019-02-19T07:02:41.628Z,23.45
2019-02-19T07:03:41.628Z,23.41
2019-02-19T07:04:41.602Z,23.44
2019-02-19T07:05:41.629Z,23.45
2019-02-19T07:06:41.578Z,23.52
2019-02-19T07:07:41.567Z,23.44
2019-02-19T07:08:41.570Z,23.45
2019-02-19T07:09:41.544Z,23.48
2019-02-19T07:10:41.567Z,23.45
2019-02-19T07:11:42.082Z,23.44
2019-02-19T07:12:41.525Z,23.45
2019-02-19T07:13:41.518Z,23.48
2019-02-19T07:14:41.489Z,23.40
2019-02-19T07:15:41.481Z,23.45
2019-02-19T07:16:41.493Z,23.47
2019-02-19T07:17:41.470Z,23.45
2019-02-19T07:18:41.516Z,23.41
2019-02-19T07:19:41.449Z,23.40
2019-02-19T07:20:41.419Z,23.44
2019-02-19T07:21:41.430Z,23.45
2019-02-19T07:22:41.427Z,23.44
2019-02-19T07:23:41.390Z,23.45
2019-02-19T07:24:41.381Z,23.45
2019-02-19T07:25:41.368Z,23.47
2019-02-19T07:26:41.389Z,23.47
2019-02-19T07:27:41.345Z,23.42
2019-02-19T07:28:41.336Z,23.47
2019-02-19T07:29:41.324Z,23.44
2019-02-19T07:30:41.329Z,23.42
2019-02-19T07:31:41.316Z,23.47
2019-02-19T07:32:41.301Z,23.44
2019-02-19T07:33:41.279Z,23.41
2019-02-19T07:34:41.267Z,23.44
2019-02-19T07:35:41.263Z,23.41
2019-02-19T07:36:41.277Z,23.45
2019-02-19T07:37:41.232Z,23.48
2019-02-19T07:38:41.261Z,23.50
2019-02-19T07:39:41.222Z,23.44
2019-02-19T07:40:41.200Z,23.45
2019-02-19T07:41:41.214Z,23.40
2019-02-19T07:42:41.190Z,23.42
2019-02-19T07:43:41.171Z,23.44
2019-02-19T07:44:41.179Z,23.41
2019-02-19T07:45:41.155Z,23.41
2019-02-19T07:46:41.183Z,23.38
2019-02-19T07:47:41.124Z,23.42
2019-02-19T07:48:41.127Z,23.44
2019-02-19T07:49:41.129Z,23.41
2019-02-19T07:50:41.098Z,23.40
2019-02-19T07:51:42.683Z,23.44
2019-02-19T07:52:41.068Z,23.38
2019-02-19T07:53:41.062Z,23.44
2019-02-19T07:54:41.046Z,23.41
2019-02-19T07:55:41.071Z,23.44
2019-02-19T07:56:41.041Z,23.42
2019-02-19T07:57:42.834Z,23.38
2019-02-19T07:58:41.026Z,23.41
2019-02-19T07:59:41.016Z,23.35
2019-02-19T08:00:40.980Z,23.41
2019-02-19T08:01:40.980Z,23.42
2019-02-19T08:02:40.976Z,23.42
2019-02-19T08:03:40.951Z,23.48
2019-02-19T08:04:40.936Z,23.38
2019-02-19T08:05:40.968Z,23.44
2019-02-19T08:06:40.940Z,23.44
2019-02-19T08:07:40.908Z,23.47
2019-02-19T08:08:41.239Z,23.45
2019-02-19T08:09:40.905Z,23.44
2019-02-19T08:10:40.883Z,23.44
2019-02-19T08:11:40.873Z,23.42
2019-02-19T08:12:40.860Z,23.40
2019-02-19T08:13:40.840Z,23.44
2019-02-19T08:14:40.839Z,23.38
2019-02-19T08:15:40.817Z,23.41
2019-02-19T08:16:40.819Z,23.40
2019-02-19T08:17:40.793Z,23.41
2019-02-19T08:18:40.782Z,23.48
2019-02-19T08:19:40.783Z,23.41
2019-02-19T08:20:40.761Z,23.41
2019-02-19T08:21:40.761Z,23.42
2019-02-19T08:22:40.764Z,23.38
2019-02-19T08:23:40.727Z,23.40
2019-02-19T08:24:40.716Z,23.44
2019-02-19T08:25:40.709Z,23.41
2019-02-19T08:26:40.790Z,23.41
2019-02-19T08:27:40.702Z,23.42
2019-02-19T08:28:40.683Z,23.41
2019-02-19T08:29:40.663Z,23.44
2019-02-19T08:30:40.662Z,23.35
2019-02-19T08:31:40.653Z,23.41
2019-02-19T08:32:40.627Z,23.35
2019-02-19T08:33:40.629Z,23.38
2019-02-19T08:34:40.608Z,23.41
2019-02-19T08:35:40.603Z,23.45
2019-02-19T08:36:40.596Z,23.42
2019-02-19T08:37:40.574Z,23.41
2019-02-19T08:38:40.562Z,23.35
2019-02-19T08:39:40.569Z,23.41
2019-02-19T08:40:40.555Z,23.41
2019-02-19T08:41:40.539Z,23.42
2019-02-19T08:42:40.516Z,23.42
2019-02-19T08:43:40.507Z,23.40
2019-02-19T08:44:40.500Z,23.42
2019-02-19T08:45:40.509Z,23.48
2019-02-19T08:46:40.498Z,23.41
2019-02-19T08:47:42.849Z,23.35
2019-02-19T08:48:40.454Z,23.47
2019-02-19T08:49:40.445Z,23.35
2019-02-19T08:50:40.432Z,23.42
2019-02-19T08:51:40.433Z,23.38
2019-02-19T08:52:40.410Z,23.44
2019-02-19T08:53:40.407Z,23.47
2019-02-19T08:54:40.388Z,23.38
2019-02-19T08:55:40.379Z,23.41
2019-02-19T08:56:40.439Z,23.38
2019-02-19T08:57:40.373Z,23.44
2019-02-19T08:58:40.350Z,23.41
2019-02-19T08:59:40.342Z,23.48
2019-02-19T09:00:40.321Z,23.41
2019-02-19T09:01:40.312Z,23.41
2019-02-19T09:02:40.334Z,23.38
2019-02-19T09:03:40.342Z,23.40
2019-02-19T09:04:40.281Z,23.41
2019-02-19T09:05:40.291Z,23.41
2019-02-19T09:06:40.261Z,23.47
2019-02-19T09:07:40.271Z,23.37
2019-02-19T09:08:40.244Z,23.44
2019-02-19T09:09:40.221Z,23.35
2019-02-19T09:10:40.255Z,23.42
2019-02-19T09:11:40.221Z,23.44
2019-02-19T09:12:40.200Z,23.40
2019-02-19T09:13:40.176Z,23.38
2019-02-19T09:14:40.211Z,23.35
2019-02-19T09:15:40.162Z,23.42
2019-02-19T09:16:40.143Z,23.41
2019-02-19T09:17:40.149Z,23.44
2019-02-19T09:18:40.192Z,23.45
2019-02-19T09:19:40.112Z,23.41
2019-02-19T09:20:40.116Z,23.40
2019-02-19T09:21:40.106Z,23.50
2019-02-19T09:22:40.099Z,23.38
2019-02-19T09:23:40.069Z,23.38
2019-02-19T09:24:40.073Z,23.45
2019-02-19T09:25:40.048Z,23.40
2019-02-19T09:26:40.034Z,23.44
2019-02-19T09:27:40.036Z,23.45
2019-02-19T09:28:40.109Z,23.42
2019-02-19T09:29:40.014Z,23.44
2019-02-19T09:30:39.991Z,23.47
2019-02-19T09:31:39.985Z,23.44
2019-02-19T09:32:39.994Z,23.44
2019-02-19T09:33:39.966Z,23.47
2019-02-19T09:34:39.957Z,23.40
2019-02-19T09:35:39.964Z,23.50
2019-02-19T09:36:39.929Z,23.47
2019-02-19T09:37:40.047Z,23.45
2019-02-19T09:38:39.904Z,23.47
2019-02-19T09:39:39.897Z,23.44
2019-02-19T09:40:39.883Z,23.45
2019-02-19T09:41:39.942Z,23.44
2019-02-19T09:42:39.873Z,23.42
2019-02-19T09:43:39.849Z,23.44
2019-02-19T09:44:39.847Z,23.37
2019-02-19T09:45:39.828Z,23.48
2019-02-19T09:46:39.826Z,23.41
2019-02-19T09:47:39.814Z,23.42
2019-02-19T09:48:39.796Z,23.38
2019-02-19T09:49:39.781Z,23.44
2019-02-19T09:50:39.773Z,23.42
2019-02-19T09:51:39.767Z,23.38
2019-02-19T09:52:39.761Z,23.42
2019-02-19T09:53:39.741Z,23.42
2019-02-19T09:54:39.755Z,23.40
2019-02-19T09:55:39.730Z,23.38
2019-02-19T09:56:39.704Z,23.41
2019-02-19T09:57:39.726Z,23.44
2019-02-19T09:58:39.683Z,23.42
2019-02-19T09:59:39.672Z,23.40
2019-02-19T10:00:39.676Z,23.40
2019-02-19T10:01:39.653Z,23.44
2019-02-19T10:02:39.652Z,23.47
2019-02-19T10:03:39.631Z,23.40
2019-02-19T10:04:39.621Z,23.50
2019-02-19T10:05:39.609Z,23.47
2019-02-19T10:06:39.605Z,23.44
2019-02-19T10:07:39.619Z,23.47
2019-02-19T10:08:39.579Z,23.45
2019-02-19T10:09:39.563Z,23.42
2019-02-19T10:10:39.551Z,23.45
2019-02-19T10:11:39.543Z,23.45
2019-02-19T10:12:39.545Z,23.50
2019-02-19T10:13:39.619Z,23.45
2019-02-19T10:14:39.511Z,23.45
2019-02-19T10:15:39.496Z,23.45
2019-02-19T10:16:41.644Z,23.45
2019-02-19T10:17:39.502Z,23.44
2019-02-19T10:18:39.471Z,23.47
2019-02-19T10:19:39.508Z,23.44
2019-02-19T10:20:39.441Z,23.42
2019-02-19T10:21:39.430Z,23.44
2019-02-19T10:22:39.436Z,23.47
2019-02-19T10:23:39.458Z,23.50
2019-02-19T10:24:39.403Z,23.42
2019-02-19T10:25:39.392Z,23.40
2019-02-19T10:26:40.654Z,23.44
2019-02-19T10:27:39.432Z,23.50
2019-02-19T10:28:39.358Z,23.50
2019-02-19T10:29:39.359Z,23.44
2019-02-19T10:30:39.371Z,23.44
2019-02-19T10:31:39.318Z,23.45
2019-02-19T10:32:39.325Z,23.52
2019-02-19T10:33:39.303Z,23.44
2019-02-19T10:34:39.289Z,23.44
2019-02-19T10:35:39.295Z,23.52
2019-02-19T10:36:39.278Z,23.52
2019-02-19T10:37:39.264Z,23.45
2019-02-19T10:38:39.243Z,23.47
2019-02-19T10:39:39.232Z,23.52
2019-02-19T10:40:39.237Z,23.47
2019-02-19T10:41:39.215Z,23.48
2019-02-19T10:42:39.211Z,23.50
2019-02-19T10:43:39.186Z,23.45
2019-02-19T10:44:39.178Z,23.50
2019-02-19T10:45:39.167Z,23.48
2019-02-19T10:46:39.158Z,23.45
2019-02-19T10:47:39.191Z,23.52
2019-02-19T10:48:39.134Z,23.48
2019-02-19T10:49:39.128Z,23.50
2019-02-19T10:50:39.113Z,23.56
2019-02-19T10:51:39.101Z,23.52
2019-02-19T10:52:39.089Z,23.47
2019-02-19T10:53:39.123Z,23.52
2019-02-19T10:54:39.067Z,23.50
2019-02-19T10:55:39.057Z,23.55
2019-02-19T10:56:39.094Z,23.48
2019-02-19T10:57:39.042Z,23.53
2019-02-19T10:58:39.040Z,23.53
2019-02-19T10:59:39.012Z,23.55
2019-02-19T11:00:39.001Z,23.57
2019-02-19T11:01:39.049Z,23.52
2019-02-19T11:02:38.980Z,23.48
2019-02-19T11:03:38.985Z,23.52
2019-02-19T11:04:40.041Z,23.55
2019-02-19T11:05:38.948Z,23.55
2019-02-19T11:06:39.153Z,23.56
2019-02-19T11:07:38.947Z,23.50
2019-02-19T11:08:38.929Z,23.56
2019-02-19T11:09:38.912Z,23.48
2019-02-19T11:10:38.904Z,23.55
2019-02-19T11:11:38.882Z,23.62
2019-02-19T11:12:38.879Z,23.52
2019-02-19T11:13:38.953Z,23.56
2019-02-19T11:14:38.862Z,23.56
2019-02-19T11:15:38.846Z,23.52
2019-02-19T11:16:38.834Z,23.59
2019-02-19T11:17:38.829Z,23.52
2019-02-19T11:18:38.820Z,23.52
2019-02-19T11:19:38.802Z,23.55
2019-02-19T11:20:38.782Z,23.50
2019-02-19T11:21:38.768Z,23.56
2019-02-19T11:22:38.763Z,23.55
2019-02-19T11:23:38.758Z,23.53
2019-02-19T11:24:38.737Z,23.57
2019-02-19T11:25:38.728Z,23.55
2019-02-19T11:26:38.742Z,23.48
2019-02-19T11:27:38.704Z,23.56
2019-02-19T11:28:38.704Z,23.56
2019-02-19T11:29:38.681Z,23.52
2019-02-19T11:30:38.672Z,23.57
2019-02-19T11:31:38.726Z,23.56
2019-02-19T11:32:38.654Z,23.57
2019-02-19T11:33:38.649Z,23.56
2019-02-19T11:34:38.627Z,23.53
2019-02-19T11:35:38.692Z,23.53
2019-02-19T11:36:38.611Z,23.55
2019-02-19T11:37:38.603Z,23.53
2019-02-19T11:38:38.615Z,23.59
2019-02-19T11:39:38.576Z,23.60
2019-02-19T11:40:38.591Z,23.63
2019-02-19T11:41:38.561Z,23.56
2019-02-19T11:42:38.536Z,23.50
2019-02-19T11:43:38.552Z,23.57
2019-02-19T11:44:38.517Z,23.53
2019-02-19T11:45:38.503Z,23.52
2019-02-19T11:46:38.496Z,23.56
2019-02-19T11:47:38.481Z,23.57
2019-02-19T11:48:38.484Z,23.63
2019-02-19T11:49:38.470Z,23.56
2019-02-19T11:50:38.450Z,23.55
2019-02-19T11:51:38.477Z,23.59
2019-02-19T11:52:38.428Z,23.59
2019-02-19T11:53:38.429Z,23.53
2019-02-19T11:54:38.410Z,23.48
2019-02-19T11:55:38.394Z,23.62
2019-02-19T11:56:38.386Z,23.56
2019-02-19T11:57:38.371Z,23.60
2019-02-19T11:58:38.402Z,23.56
2019-02-19T11:59:38.354Z,23.57
2019-02-19T12:00:38.340Z,23.55
2019-02-19T12:01:38.339Z,23.60
2019-02-19T12:02:38.322Z,23.59
2019-02-19T12:03:38.317Z,23.55
2019-02-19T12:04:38.295Z,23.53
2019-02-19T12:05:38.313Z,23.53
2019-02-19T12:06:38.295Z,23.52
2019-02-19T12:07:38.263Z,23.53
2019-02-19T12:08:39.255Z,23.53
2019-02-19T12:09:38.267Z,23.55
2019-02-19T12:10:38.233Z,23.48
2019-02-19T12:11:38.226Z,23.57
2019-02-19T12:12:38.247Z,23.66
2019-02-19T12:13:38.212Z,23.63
2019-02-19T12:14:38.184Z,23.66
2019-02-19T12:15:38.172Z,23.55
2019-02-19T12:16:38.163Z,23.66
2019-02-19T12:17:38.156Z,23.56
2019-02-19T12:18:45.952Z,23.60
2019-02-19T12:19:39.148Z,23.67
2019-02-19T12:20:38.120Z,23.71
2019-02-19T12:21:38.106Z,23.70
2019-02-19T12:22:38.127Z,23.72
2019-02-19T12:23:38.102Z,23.72
2019-02-19T12:24:38.074Z,23.74
2019-02-19T12:25:38.063Z,23.63
2019-02-19T12:26:38.123Z,23.71
2019-02-19T12:27:38.048Z,23.59
2019-02-19T12:28:38.047Z,23.59
2019-02-19T12:29:38.020Z,23.63
2019-02-19T12:30:38.101Z,23.62
2019-02-19T12:31:37.999Z,23.62
2019-02-19T12:32:37.995Z,23.60
2019-02-19T12:33:38.288Z,23.72
2019-02-19T12:34:37.964Z,23.67
2019-02-19T12:35:37.974Z,23.60
2019-02-19T12:36:37.942Z,23.60
2019-02-19T12:37:37.931Z,23.72
2019-02-19T12:38:37.926Z,23.64
2019-02-19T12:39:37.923Z,23.63
2019-02-19T12:40:37.904Z,23.64
2019-02-19T12:41:37.887Z,23.60
2019-02-19T12:42:37.885Z,23.71
2019-02-19T12:43:37.869Z,23.67
2019-02-19T12:44:37.873Z,23.64
2019-02-19T12:45:37.874Z,23.57
2019-02-19T12:46:37.835Z,23.67
2019-02-19T12:47:37.825Z,23.67
2019-02-19T12:48:37.810Z,23.63
2019-02-19T12:49:37.812Z,23.59
2019-02-19T12:50:37.796Z,23.63
2019-02-19T12:51:37.822Z,23.55
2019-02-19T12:52:37.787Z,23.59